Time;durP1;ratioP1;P1;durP2;ratioP2;P2;SDS_P1;SDS_P2;PMS_P1;PMS_P2;Temp;Humidity;BMP_temperature;BMP_pressure;BME280_temperature;BME280_humidity;BME280_pressure;Samples;Min_cycle;Max_cycle;Signal;HPM_P1;HPM_P2
2022/02/21 00:07:08;;;;;;;0.35;0.20;;;9.50;75.50;;;;;;20873014;28;20033;-72
2022/02/21 00:17:08;;;;;;;0.50;0.22;;;9.50;75.50;;;;;;20857811;28;20052;-73
2022/02/21 00:27:09;;;;;;;0.40;0.30;;;9.50;75.50;;;;;;20871541;28;20379;-72
2022/02/21 00:37:10;;;;;;;0.20;0.20;;;9.50;75.50;;;;;;20887092;28;20036;-73
2022/02/21 00:47:10;;;;;;;1.90;0.20;;;9.50;75.40;;;;;;20886595;28;20033;-73
2022/02/21 00:57:11;;;;;;;1.00;0.40;;;9.50;75.50;;;;;;20885774;28;20047;-73
2022/02/21 01:07:11;;;;;;;0.20;0.20;;;9.50;75.90;;;;;;20884978;28;20086;-72
2022/02/21 01:17:12;;;;;;;1.52;0.32;;;9.50;76.60;;;;;;20867898;28;20505;-72
2022/02/21 01:27:16;;;;;;;0.52;0.30;;;9.50;77.20;;;;;;20867250;28;20464;-73
2022/02/21 01:37:16;;;;;;;0.20;0.10;;;9.50;77.40;;;;;;20866855;28;20029;-73
2022/02/21 01:47:19;;;;;;;0.10;0.10;;;9.50;77.50;;;;;;20865445;28;20043;-72
2022/02/21 01:57:19;;;;;;;0.10;0.10;;;9.50;77.40;;;;;;20865076;28;20315;-72
2022/02/21 02:07:20;;;;;;;0.50;0.28;;;9.50;77.30;;;;;;20880156;28;20047;-74
2022/02/21 02:17:21;;;;;;;0.15;0.10;;;9.50;77.20;;;;;;20913824;28;20053;-73
2022/02/21 02:27:21;;;;;;;0.30;0.30;;;9.50;77.00;;;;;;20878493;28;20029;-73
2022/02/21 02:37:23;;;;;;;0.10;0.10;;;9.50;76.90;;;;;;20861825;28;20041;-73
2022/02/21 02:47:24;;;;;;;0.10;0.10;;;9.40;76.70;;;;;;20860652;28;20036;-72
2022/02/21 02:57:24;;;;;;;0.10;0.10;;;9.40;76.60;;;;;;20876292;28;20039;-72
2022/02/21 03:07:25;;;;;;;0.30;0.10;;;9.40;76.40;;;;;;20875575;28;20060;-73
2022/02/21 03:17:25;;;;;;;1.00;0.30;;;9.40;76.30;;;;;;20858889;28;20036;-73
2022/02/21 03:27:26;;;;;;;1.73;0.47;;;9.40;76.20;;;;;;20874460;28;20086;-73
2022/02/21 03:37:26;;;;;;;0.50;0.20;;;9.30;75.80;;;;;;20841733;28;20033;-73
2022/02/21 03:47:27;;;;;;;0.30;0.20;;;9.40;75.70;;;;;;20874055;28;20037;-73
2022/02/21 03:57:28;;;;;;;0.20;0.20;;;9.40;75.50;;;;;;20868446;28;20123;-72
2022/02/21 04:07:28;;;;;;;1.98;0.43;;;9.40;75.30;;;;;;20889612;28;20047;-72
2022/02/21 04:17:31;;;;;;;1.90;0.45;;;9.30;75.00;;;;;;20905446;28;20040;-72
2022/02/21 04:27:52;;;;;;;1.13;0.40;;;9.30;74.80;;;;;;20888105;28;20064;-72
2022/02/21 04:37:53;;;;;;;1.00;0.32;;;9.30;74.50;;;;;;20903653;28;20044;-72
2022/02/21 04:47:53;;;;;;;1.00;0.50;;;9.40;74.30;;;;;;20886362;28;20029;-72
2022/02/21 04:57:54;;;;;;;5.10;1.20;;;9.30;73.90;;;;;;20902463;28;20028;-72
2022/02/21 05:07:55;;;;;;;4.03;0.88;;;9.30;73.60;;;;;;20867623;28;20337;-71
2022/02/21 05:17:55;;;;;;;2.40;0.77;;;9.30;73.40;;;;;;20884215;28;20101;-73
2022/02/21 05:27:56;;;;;;;5.47;1.10;;;9.30;73.20;;;;;;20868555;28;20040;-73
2022/02/21 05:37:56;;;;;;;6.97;1.33;;;9.30;72.90;;;;;;20898836;28;20381;-73
2022/02/21 05:47:57;;;;;;;6.68;0.88;;;9.30;72.60;;;;;;20877158;28;20033;-74
2022/02/21 05:57:58;;;;;;;3.30;0.93;;;9.20;72.30;;;;;;20892671;28;20082;-74
2022/02/21 06:07:59;;;;;;;4.25;1.08;;;9.30;72.20;;;;;;20880065;28;20287;-75
2022/02/21 06:17:59;;;;;;;7.47;1.73;;;9.20;71.90;;;;;;20879536;28;20384;-76
2022/02/21 06:28:00;;;;;;;2.72;0.73;;;9.20;71.70;;;;;;20930294;28;20059;-76
2022/02/21 06:38:04;;;;;;;4.47;1.80;;;9.30;71.60;;;;;;20962513;28;20524;-74
2022/02/21 06:48:05;;;;;;;5.05;1.10;;;9.30;71.60;;;;;;20938670;28;20404;-77
2022/02/21 06:58:05;;;;;;;5.35;1.10;;;9.20;71.40;;;;;;20900834;28;20060;-79
2022/02/21 07:08:07;;;;;;;4.17;0.90;;;9.20;71.30;;;;;;20898869;28;20028;-78
2022/02/21 07:18:10;;;;;;;3.78;1.02;;;9.20;71.20;;;;;;20935869;28;20307;-78
2022/02/21 07:28:12;;;;;;;6.55;1.20;;;9.20;71.00;;;;;;20906350;28;20395;-79
2022/02/21 07:38:12;;;;;;;5.20;1.00;;;9.20;71.00;;;;;;20947620;28;20099;-78
2022/02/21 07:48:17;;;;;;;2.70;0.70;;;9.20;70.90;;;;;;20880459;28;20055;-80
2022/02/21 07:58:18;;;;;;;4.85;0.90;;;9.20;70.80;;;;;;20876884;28;20472;-76
2022/02/21 08:08:18;;;;;;;5.15;0.82;;;9.20;70.60;;;;;;20886633;28;20060;-77
2022/02/21 08:18:19;;;;;;;2.03;0.70;;;9.20;70.50;;;;;;20925149;28;20136;-76
2022/02/21 08:28:19;;;;;;;3.05;0.82;;;9.20;70.30;;;;;;20870137;28;20036;-75
2022/02/21 08:38:20;;;;;;;4.03;0.95;;;9.20;70.30;;;;;;20870982;28;20051;-75
2022/02/21 08:48:20;;;;;;;1.50;0.75;;;9.20;70.10;;;;;;20884743;28;20056;-74
2022/02/21 08:58:21;;;;;;;3.67;0.77;;;9.20;70.10;;;;;;20867245;28;20080;-74
2022/02/21 09:08:22;;;;;;;3.00;0.70;;;9.20;69.90;;;;;;20896056;28;20039;-76
2022/02/21 09:18:22;;;;;;;6.22;1.10;;;9.20;69.80;;;;;;20897570;28;20412;-76
2022/02/21 09:28:23;;;;;;;5.65;0.98;;;9.20;69.60;;;;;;20929506;28;20032;-76
2022/02/21 09:38:24;;;;;;;2.78;0.80;;;9.20;69.50;;;;;;20876102;28;20307;-75
2022/02/21 09:48:25;;;;;;;2.42;0.80;;;9.20;69.50;;;;;;20878363;28;20033;-76
2022/02/21 09:58:26;;;;;;;6.82;1.00;;;9.20;69.40;;;;;;20830688;28;20037;-75
2022/02/21 10:08:26;;;;;;;3.42;1.17;;;9.20;69.30;;;;;;20878411;28;20090;-76
2022/02/21 10:18:27;;;;;;;4.03;1.10;;;9.20;69.30;;;;;;20860985;28;20048;-76
2022/02/21 10:28:32;;;;;;;4.88;1.48;;;9.20;69.10;;;;;;20825353;28;20056;-76
2022/02/21 10:38:40;;;;;;;3.33;1.10;;;9.20;69.20;;;;;;20922003;28;20048;-76
2022/02/21 10:48:44;;;;;;;2.95;0.88;;;9.20;69.10;;;;;;20949430;28;20044;-74
2022/02/21 10:58:44;;;;;;;3.90;1.00;;;9.20;69.00;;;;;;20852881;28;20037;-76
2022/02/21 11:08:45;;;;;;;2.60;0.80;;;9.20;68.90;;;;;;20908607;28;20078;-78
2022/02/21 11:18:47;;;;;;;2.15;1.15;;;9.20;68.90;;;;;;21284503;22;20312;-80
2022/02/21 11:29:04;;;;;;;2.75;1.27;;;9.20;68.80;;;;;;20827410;28;20112;-79
2022/02/21 11:39:26;;;;;;;2.28;1.08;;;9.20;68.80;;;;;;20796582;28;20041;-74
2022/02/21 11:49:29;;;;;;;4.75;1.33;;;9.20;68.80;;;;;;20894083;28;20044;-71
2022/02/21 11:59:31;;;;;;;8.88;0.90;;;9.20;68.70;;;;;;20840437;28;20037;-72
2022/02/21 12:09:32;;;;;;;5.38;1.13;;;9.20;68.70;;;;;;20855021;28;20116;-71
2022/02/21 12:19:33;;;;;;;3.05;1.23;;;9.20;68.70;;;;;;20815545;28;20120;-70
2022/02/21 12:29:38;;;;;;;6.30;1.25;;;9.20;68.50;;;;;;20816362;28;20299;-70
2022/02/21 12:39:41;;;;;;;5.68;1.15;;;9.20;68.50;;;;;;20871390;28;20088;-69
2022/02/21 12:49:48;;;;;;;9.40;1.77;;;9.20;68.50;;;;;;20871289;28;20037;-72
2022/02/21 12:59:50;;;;;;;5.43;1.17;;;9.20;68.60;;;;;;20787246;28;20496;-76
2022/02/21 13:09:53;;;;;;;4.13;1.00;;;9.20;68.70;;;;;;20817993;28;20127;-78
2022/02/21 13:19:56;;;;;;;4.25;1.20;;;9.20;68.90;;;;;;20809755;28;20032;-78
2022/02/21 13:29:57;;;;;;;4.78;1.05;;;9.20;69.00;;;;;;20821982;28;20044;-78
2022/02/21 13:39:59;;;;;;;1.63;0.70;;;9.20;69.10;;;;;;20828849;28;20369;-79
2022/02/21 13:50:00;;;;;;;1.50;0.60;;;9.20;69.20;;;;;;20836135;28;20044;-80
2022/02/21 14:00:00;;;;;;;1.30;0.50;;;9.20;69.40;;;;;;20840051;28;20033;-78
2022/02/21 14:10:11;;;;;;;2.13;0.70;;;9.20;69.50;;;;;;20836546;28;20302;-80
2022/02/21 14:20:12;;;;;;;2.65;0.65;;;9.20;69.50;;;;;;20836064;28;20055;-79
2022/02/21 14:30:13;;;;;;;1.85;0.63;;;9.20;69.60;;;;;;20833920;28;20120;-76
2022/02/21 14:40:13;;;;;;;2.10;0.80;;;9.20;69.70;;;;;;20851293;28;20124;-75
2022/02/21 14:50:14;;;;;;;2.03;0.50;;;9.20;69.80;;;;;;20828796;28;20116;-75
2022/02/21 15:00:15;;;;;;;2.35;0.75;;;9.20;69.80;;;;;;20817516;28;20032;-76
2022/02/21 15:10:16;;;;;;;1.98;0.50;;;9.20;69.90;;;;;;20833021;28;20461;-82
2022/02/21 15:20:18;;;;;;;1.38;0.60;;;9.20;69.90;;;;;;20874303;28;20123;-78
2022/02/21 15:30:20;;;;;;;1.98;0.75;;;9.20;70.00;;;;;;20839943;28;20052;-79
2022/02/21 15:40:21;;;;;;;3.20;0.85;;;9.20;70.00;;;;;;20800789;28;20030;-78
2022/02/21 15:50:22;;;;;;;2.65;0.60;;;9.20;70.10;;;;;;20779129;28;20034;-77
2022/02/21 16:00:24;;;;;;;2.70;0.77;;;9.30;70.30;;;;;;20787606;28;20160;-75
2022/02/21 16:10:25;;;;;;;2.88;0.63;;;9.20;70.50;;;;;;20832403;28;20037;-75
2022/02/21 16:20:25;;;;;;;3.92;0.65;;;9.30;70.70;;;;;;20802276;28;20115;-76
2022/02/21 16:30:26;;;;;;;1.70;0.73;;;9.30;70.90;;;;;;20873038;28;20041;-76
2022/02/21 16:40:27;;;;;;;1.63;0.43;;;9.30;71.00;;;;;;20860350;28;20496;-77
2022/02/21 16:50:27;;;;;;;1.60;0.30;;;9.20;71.00;;;;;;20841803;28;20061;-75
2022/02/21 17:00:28;;;;;;;1.42;0.47;;;9.20;71.00;;;;;;20791257;28;20445;-77
2022/02/21 17:10:28;;;;;;;0.65;0.40;;;9.20;71.00;;;;;;20813173;28;20399;-78
2022/02/21 17:20:29;;;;;;;2.13;0.27;;;9.20;71.10;;;;;;20785570;28;20033;-77
2022/02/21 17:30:29;;;;;;;3.13;0.50;;;9.20;71.20;;;;;;20821182;28;20893;-77
2022/02/21 17:40:33;;;;;;;1.15;0.40;;;9.20;71.20;;;;;;20882922;28;20036;-75
2022/02/21 17:50:34;;;;;;;1.38;0.50;;;9.20;71.20;;;;;;20865256;28;20477;-77
2022/02/21 18:00:35;;;;;;;1.15;0.55;;;9.20;71.30;;;;;;20872024;28;20477;-75
2022/02/21 18:10:36;;;;;;;3.20;0.57;;;9.20;71.20;;;;;;20863114;28;20036;-76
2022/02/21 18:20:39;;;;;;;2.65;0.70;;;9.20;71.20;;;;;;20859058;28;20419;-76
2022/02/21 18:30:40;;;;;;;1.52;0.57;;;9.20;71.20;;;;;;20868131;28;20040;-76
2022/02/21 18:40:40;;;;;;;1.10;0.50;;;9.10;71.10;;;;;;20860673;28;20497;-76
2022/02/21 18:50:41;;;;;;;1.65;0.65;;;9.10;71.10;;;;;;20860623;28;20338;-76
2022/02/21 19:00:42;;;;;;;0.65;0.50;;;9.10;71.10;;;;;;20867517;28;20033;-76
2022/02/21 19:10:42;;;;;;;1.52;0.90;;;9.20;71.10;;;;;;20876588;28;20494;-75
2022/02/21 19:20:43;;;;;;;1.77;0.70;;;9.10;71.00;;;;;;20871064;28;20032;-76
2022/02/21 19:30:44;;;;;;;1.55;0.60;;;9.20;71.10;;;;;;20848809;28;20327;-76
2022/02/21 19:40:46;;;;;;;1.25;0.85;;;9.10;71.00;;;;;;20857938;28;20064;-76
2022/02/21 19:50:47;;;;;;;3.25;0.88;;;9.10;71.00;;;;;;20857548;28;20033;-76
2022/02/21 20:00:48;;;;;;;1.63;0.83;;;9.10;71.10;;;;;;20864031;28;20025;-77
2022/02/21 20:10:49;;;;;;;2.60;0.68;;;9.10;71.10;;;;;;20839809;28;20393;-78
2022/02/21 20:20:49;;;;;;;1.35;0.55;;;9.10;71.20;;;;;;20873401;28;20037;-78
2022/02/21 20:30:50;;;;;;;2.45;0.60;;;9.10;71.20;;;;;;20831064;28;20037;-78
2022/02/21 20:40:51;;;;;;;3.72;0.82;;;9.10;71.20;;;;;;20800764;28;20287;-77
2022/02/21 20:50:54;;;;;;;5.55;0.88;;;9.10;71.30;;;;;;20877277;28;20503;-77
2022/02/21 21:00:54;;;;;;;3.17;0.73;;;9.10;71.30;;;;;;20885123;28;20044;-78
2022/02/21 21:10:55;;;;;;;4.70;1.08;;;9.10;71.40;;;;;;20868531;28;20080;-78
2022/02/21 21:20:55;;;;;;;2.72;1.50;;;9.10;71.40;;;;;;20897162;28;20477;-78
2022/02/21 21:30:56;;;;;;;2.65;0.73;;;9.10;71.50;;;;;;20901022;28;20065;-77
2022/02/21 21:40:56;;;;;;;3.65;0.85;;;9.10;71.50;;;;;;20867189;28;20037;-77
2022/02/21 21:50:57;;;;;;;2.90;1.08;;;9.10;71.60;;;;;;20865956;28;20037;-77
2022/02/21 22:00:58;;;;;;;8.82;1.20;;;9.10;71.70;;;;;;20882043;28;20029;-77
2022/02/21 22:10:58;;;;;;;2.83;1.10;;;9.10;71.80;;;;;;20864704;28;20143;-78
2022/02/21 22:20:59;;;;;;;4.30;1.60;;;9.10;71.90;;;;;;20864281;28;20033;-77
2022/02/21 22:30:59;;;;;;;3.97;0.82;;;9.10;72.00;;;;;;20862768;28;20035;-78
2022/02/21 22:41:00;;;;;;;4.63;1.10;;;9.10;72.10;;;;;;20861900;28;20036;-78
2022/02/21 22:51:00;;;;;;;6.53;1.45;;;9.10;72.10;;;;;;20862124;28;20489;-77
2022/02/21 23:01:01;;;;;;;2.88;0.90;;;9.10;72.20;;;;;;20830764;28;20067;-77
2022/02/21 23:11:02;;;;;;;2.30;0.70;;;9.00;72.20;;;;;;20827916;28;20803;-78
2022/02/21 23:21:03;;;;;;;6.47;1.85;;;9.10;72.30;;;;;;20794132;28;20132;-78
2022/02/21 23:31:03;;;;;;;7.97;1.10;;;9.10;72.30;;;;;;20793372;28;20041;-78
2022/02/21 23:41:05;;;;;;;2.13;0.75;;;9.10;72.40;;;;;;20793291;28;20033;-78
2022/02/21 23:51:06;;;;;;;8.77;1.38;;;9.10;72.40;;;;;;20760551;28;20048;-77
